< < Back
Terminal Aerodrome Forecast


Current Version              Previous Versions:   1  2  3  4  5  6  7  8  9  

Terminal Aerodrome Forecast

789
FTUS42 KILM 040600 CCA
TAFFLO
TAF COR
KFLO 040624Z 0406/0506 VRB03KT 1/2SM FG OVC002
     FM040900 22004KT 3SM BR OVC003 WS010/23034KT
     FM041200 21008KT P6SM BKN004
     FM041500 22011G19KT P6SM BKN008
     FM041800 23015G23KT P6SM BKN025
     FM042200 22011G16KT P6SM SCT250=

Latest METAR

752
SAUS70 KWBC 040656
MTRFLO
METAR KFLO 040653Z AUTO 00000KT 1/4SM FG VV002 06/05 A3010 RMK AO2
SLP192 T00560050


USA.gov is the U.S. government's official web portal to all federal, state and local government web resources and services.